createdAt,value
2019-01-06T00:01:48.622Z,3.00
2019-01-06T00:04:50.143Z,3.27
2019-01-06T00:07:42.336Z,2.67
2019-01-06T00:10:30.250Z,3.37
2019-01-06T00:13:25.401Z,3.05
2019-01-06T00:16:04.896Z,2.95
2019-01-06T00:18:52.681Z,3.47
2019-01-06T00:21:41.035Z,2.85
2019-01-06T00:24:29.794Z,3.72
2019-01-06T00:27:28.229Z,3.52
2019-01-06T00:30:26.380Z,3.72
2019-01-06T00:33:14.521Z,3.17
2019-01-06T00:36:03.799Z,3.70
2019-01-06T00:38:59.141Z,3.98
2019-01-06T00:41:46.885Z,4.20
2019-01-06T00:44:34.599Z,3.40
2019-01-06T00:47:29.921Z,3.70
2019-01-06T00:50:18.371Z,3.33
2019-01-06T00:53:10.508Z,3.72
2019-01-06T00:55:58.522Z,3.55
2019-01-06T00:58:56.607Z,3.58
2019-01-06T01:01:51.799Z,3.00
2019-01-06T01:04:56.207Z,2.90
2019-01-06T01:07:48.348Z,2.75
2019-01-06T01:10:36.542Z,2.47
2019-01-06T01:13:36.289Z,2.65
2019-01-06T01:16:20.917Z,2.45
2019-01-06T01:19:06.823Z,2.52
2019-01-06T01:21:54.745Z,2.67
2019-01-06T01:24:56.182Z,2.65
2019-01-06T01:27:44.151Z,2.90
2019-01-06T01:30:36.403Z,2.55
2019-01-06T01:33:15.657Z,2.87
2019-01-06T01:36:03.596Z,2.47
2019-01-06T01:38:55.690Z,2.60
2019-01-06T01:41:44.870Z,2.50
2019-01-06T01:44:32.890Z,2.52
2019-01-06T01:47:20.937Z,2.27
2019-01-06T01:50:05.134Z,2.12
2019-01-06T01:52:53.096Z,2.20
2019-01-06T01:55:42.168Z,2.08
2019-01-06T01:58:40.643Z,2.22
2019-01-06T02:01:29.714Z,2.30
2019-01-06T02:04:17.808Z,2.20
2019-01-06T02:07:08.190Z,2.25
2019-01-06T02:10:06.428Z,2.50
2019-01-06T02:12:58.056Z,2.40
2019-01-06T02:15:46.238Z,2.22
2019-01-06T02:18:35.339Z,2.17
2019-01-06T02:21:42.834Z,2.58
2019-01-06T02:24:34.932Z,2.22
2019-01-06T02:27:33.136Z,2.33
2019-01-06T02:30:40.445Z,1.62
2019-01-06T02:33:41.256Z,2.22
2019-01-06T02:36:29.078Z,2.10
2019-01-06T02:39:18.232Z,2.17
2019-01-06T02:42:06.030Z,2.33
2019-01-06T02:44:58.096Z,2.22
2019-01-06T02:47:44.829Z,2.37
2019-01-06T02:50:43.250Z,2.35
2019-01-06T02:53:38.268Z,2.17
2019-01-06T02:56:27.501Z,2.60
2019-01-06T02:59:15.297Z,2.00
2019-01-06T03:02:10.822Z,1.95
2019-01-06T03:05:08.766Z,2.17
2019-01-06T03:07:56.561Z,1.98
2019-01-06T03:10:44.411Z,2.08
2019-01-06T03:13:32.756Z,2.20
2019-01-06T03:16:20.614Z,2.10
2019-01-06T03:19:08.403Z,2.42
2019-01-06T03:21:56.287Z,2.20
2019-01-06T03:25:03.663Z,2.45
2019-01-06T03:27:51.227Z,2.30
2019-01-06T03:30:40.330Z,2.30
2019-01-06T03:33:38.621Z,2.20
2019-01-06T03:36:34.033Z,2.30
2019-01-06T03:39:23.424Z,2.25
2019-01-06T03:42:11.428Z,2.10
2019-01-06T03:45:00.546Z,1.92
2019-01-06T03:47:48.549Z,2.17
2019-01-06T03:50:49.805Z,2.00
2019-01-06T03:53:40.845Z,1.92
2019-01-06T03:56:29.080Z,2.10
2019-01-06T03:59:18.947Z,2.30
2019-01-06T04:02:08.133Z,2.05
2019-01-06T04:04:58.917Z,2.00
2019-01-06T04:07:47.073Z,2.08
2019-01-06T04:10:34.338Z,1.82
2019-01-06T04:13:28.562Z,1.82
2019-01-06T04:16:27.835Z,2.20
2019-01-06T04:19:16.039Z,2.20
2019-01-06T04:22:10.924Z,2.08
2019-01-06T04:25:00.003Z,2.35
2019-01-06T04:27:55.244Z,2.20
2019-01-06T04:30:59.527Z,2.10
2019-01-06T04:33:51.479Z,2.22
2019-01-06T04:36:39.419Z,2.30
2019-01-06T04:39:34.685Z,2.05
2019-01-06T04:42:42.044Z,2.15
2019-01-06T04:45:39.816Z,1.98
2019-01-06T04:48:40.902Z,2.20
2019-01-06T04:51:29.018Z,2.30
2019-01-06T04:54:21.359Z,2.30
2019-01-06T04:57:20.496Z,2.05
2019-01-06T05:00:13.249Z,2.02
2019-01-06T05:03:05.227Z,2.67
2019-01-06T05:05:51.610Z,2.37
2019-01-06T05:08:39.401Z,2.67
2019-01-06T05:11:37.551Z,2.60
2019-01-06T05:14:35.633Z,3.05
2019-01-06T05:17:24.736Z,2.40
2019-01-06T05:20:16.823Z,2.92
2019-01-06T05:23:05.901Z,3.20
2019-01-06T05:26:07.400Z,3.22
2019-01-06T05:29:11.975Z,2.92
2019-01-06T05:32:10.466Z,4.15
2019-01-06T05:34:57.968Z,4.30
2019-01-06T05:37:46.169Z,3.80
2019-01-06T05:40:33.805Z,4.22
2019-01-06T05:43:38.048Z,4.20
2019-01-06T05:46:23.327Z,4.67
2019-01-06T05:49:11.102Z,4.62
2019-01-06T05:52:00.213Z,4.75
2019-01-06T05:54:55.393Z,4.33
2019-01-06T05:57:44.478Z,4.10
2019-01-06T06:00:32.460Z,4.40
2019-01-06T06:03:33.566Z,4.33
2019-01-06T06:06:25.472Z,4.62
2019-01-06T06:09:13.563Z,4.33
2019-01-06T06:12:21.184Z,4.30
2019-01-06T06:15:25.431Z,4.30
2019-01-06T06:18:26.775Z,4.50
2019-01-06T06:21:14.470Z,4.55
2019-01-06T06:24:09.704Z,4.45
2019-01-06T06:27:01.923Z,4.53
2019-01-06T06:29:57.056Z,4.65
2019-01-06T06:32:46.189Z,4.75
2019-01-06T06:35:50.755Z,5.50
2019-01-06T06:38:35.427Z,4.42
2019-01-06T06:41:28.506Z,5.05
2019-01-06T06:44:36.072Z,5.25
2019-01-06T06:47:34.154Z,4.67
2019-01-06T06:50:22.206Z,4.87
2019-01-06T06:53:26.064Z,5.30
2019-01-06T06:56:24.160Z,5.05
2019-01-06T06:59:06.511Z,4.90
2019-01-06T07:02:49.256Z,5.17
2019-01-06T07:05:53.756Z,4.87
2019-01-06T07:08:49.652Z,4.75
2019-01-06T07:11:56.920Z,4.80
2019-01-06T07:14:41.219Z,5.00
2019-01-06T07:18:03.409Z,4.85
2019-01-06T07:20:58.775Z,5.03
2019-01-06T07:23:56.854Z,4.90
2019-01-06T07:26:45.926Z,5.28
2019-01-06T07:29:45.381Z,4.60
2019-01-06T07:32:49.958Z,4.83
2019-01-06T07:35:30.366Z,5.42
2019-01-06T07:38:34.857Z,5.70
2019-01-06T07:41:22.614Z,5.50
2019-01-06T07:44:14.982Z,5.00
2019-01-06T07:47:22.188Z,5.25
2019-01-06T07:50:20.436Z,5.97
2019-01-06T07:53:28.156Z,7.22
2019-01-06T07:56:26.451Z,5.75
2019-01-06T07:59:21.622Z,5.97
2019-01-06T08:02:09.876Z,5.53
2019-01-06T08:04:57.626Z,6.05
2019-01-06T08:08:02.071Z,6.30
2019-01-06T08:10:57.352Z,5.80
2019-01-06T08:13:47.561Z,5.55
2019-01-06T08:16:35.701Z,6.60
2019-01-06T08:19:23.404Z,5.87
2019-01-06T08:22:15.514Z,6.25
2019-01-06T08:25:13.447Z,5.80
2019-01-06T08:28:02.706Z,6.20
2019-01-06T08:30:50.529Z,5.87
2019-01-06T08:33:38.401Z,5.92
2019-01-06T08:36:39.686Z,6.05
2019-01-06T08:39:19.846Z,5.90
2019-01-06T08:42:07.771Z,6.03
2019-01-06T08:44:55.685Z,5.50
2019-01-06T08:47:47.863Z,6.30
2019-01-06T08:50:46.430Z,5.80
2019-01-06T08:53:34.303Z,6.10
2019-01-06T08:56:29.288Z,5.95
2019-01-06T08:59:17.721Z,6.15
2019-01-06T09:02:04.795Z,6.40
2019-01-06T09:04:52.723Z,6.03
2019-01-06T09:07:53.776Z,6.10
2019-01-06T09:10:54.130Z,6.00
2019-01-06T09:13:45.856Z,6.05
2019-01-06T09:16:35.138Z,5.25
2019-01-06T09:19:30.642Z,5.67
2019-01-06T09:22:25.979Z,6.17
2019-01-06T09:25:13.737Z,5.67
2019-01-06T09:28:21.468Z,5.65
2019-01-06T09:31:22.529Z,5.55
2019-01-06T09:34:24.020Z,5.22
2019-01-06T09:37:11.830Z,6.33
2019-01-06T09:40:07.585Z,5.58
2019-01-06T09:42:55.925Z,6.25
2019-01-06T09:45:45.188Z,6.62
2019-01-06T09:48:33.260Z,6.40
2019-01-06T09:51:31.616Z,6.33
2019-01-06T09:54:36.196Z,5.72
2019-01-06T09:57:24.228Z,6.35
2019-01-06T10:00:17.641Z,5.75
2019-01-06T10:03:09.721Z,5.58
2019-01-06T10:05:57.761Z,5.78
2019-01-06T10:08:59.355Z,5.17
2019-01-06T10:12:00.845Z,4.40
2019-01-06T10:15:08.284Z,4.92
2019-01-06T10:17:56.747Z,4.20
2019-01-06T10:20:45.963Z,3.47
2019-01-06T10:23:41.345Z,4.78
2019-01-06T10:26:29.570Z,3.70
2019-01-06T10:29:17.621Z,3.58
2019-01-06T10:32:08.543Z,3.87
2019-01-06T10:34:57.706Z,3.25
2019-01-06T10:37:55.848Z,3.35
2019-01-06T10:40:50.880Z,3.75
2019-01-06T10:43:49.257Z,3.47
2019-01-06T10:46:37.554Z,3.50
2019-01-06T10:49:35.899Z,3.80
2019-01-06T10:52:22.986Z,3.30
2019-01-06T10:55:21.485Z,3.12
2019-01-06T10:58:25.775Z,3.17
2019-01-06T11:01:17.861Z,3.65
2019-01-06T11:04:22.543Z,3.20
2019-01-06T11:07:30.058Z,3.10
2019-01-06T11:10:19.698Z,3.02
2019-01-06T11:13:21.781Z,3.95
2019-01-06T11:16:19.889Z,3.10
2019-01-06T11:19:18.373Z,3.05
2019-01-06T11:22:06.419Z,3.02
2019-01-06T11:25:01.609Z,2.90
2019-01-06T11:28:09.064Z,3.25
2019-01-06T11:31:07.305Z,3.47
2019-01-06T11:33:57.786Z,3.33
2019-01-06T11:36:45.330Z,3.80
2019-01-06T11:39:33.252Z,3.58
2019-01-06T11:42:25.511Z,3.87
2019-01-06T11:45:20.607Z,3.70
2019-01-06T11:48:08.451Z,3.30
2019-01-06T11:50:55.602Z,3.62
2019-01-06T11:53:43.338Z,3.80
2019-01-06T11:56:27.010Z,3.85
2019-01-06T11:59:10.024Z,3.47
2019-01-06T12:02:17.687Z,4.03
2019-01-06T12:05:05.721Z,3.65
2019-01-06T12:08:02.061Z,4.05
2019-01-06T12:10:51.042Z,3.80
2019-01-06T12:13:49.376Z,4.12
2019-01-06T12:16:37.454Z,3.60
2019-01-06T12:19:33.856Z,21.10
2019-01-06T12:22:30.814Z,9.43
2019-01-06T12:25:18.729Z,7.10
2019-01-06T12:28:00.624Z,4.17
2019-01-06T12:30:52.713Z,3.87
2019-01-06T12:33:40.489Z,3.17
2019-01-06T12:36:37.379Z,4.17
2019-01-06T12:39:30.704Z,3.47
2019-01-06T12:42:18.674Z,3.58
2019-01-06T12:45:14.170Z,3.60
2019-01-06T12:48:03.567Z,3.50
2019-01-06T12:50:54.738Z,3.12
2019-01-06T12:53:42.868Z,3.00
2019-01-06T12:56:30.550Z,3.35
2019-01-06T12:59:38.138Z,3.05
2019-01-06T13:02:29.962Z,6.87
2019-01-06T13:05:24.239Z,3.90
2019-01-06T13:08:16.239Z,2.92
2019-01-06T13:11:04.356Z,2.80
2019-01-06T13:14:02.789Z,2.98
2019-01-06T13:16:45.518Z,2.62
2019-01-06T13:19:33.458Z,3.10
2019-01-06T13:22:43.784Z,2.40
2019-01-06T13:25:45.577Z,2.58
2019-01-06T13:28:34.859Z,2.70
2019-01-06T13:31:25.785Z,2.90
2019-01-06T13:34:14.038Z,2.30
2019-01-06T13:37:09.852Z,2.10
2019-01-06T13:40:01.898Z,2.58
2019-01-06T13:42:49.980Z,2.40
2019-01-06T13:45:42.410Z,2.47
2019-01-06T13:48:43.976Z,2.50
2019-01-06T13:51:42.224Z,2.62
2019-01-06T13:54:30.362Z,3.00
2019-01-06T13:57:19.648Z,3.05
2019-01-06T14:00:11.629Z,3.40
2019-01-06T14:02:54.699Z,3.37
2019-01-06T14:05:50.023Z,2.98
2019-01-06T14:08:38.206Z,3.15
2019-01-06T14:11:33.296Z,3.30
2019-01-06T14:14:22.689Z,3.60
2019-01-06T14:17:11.864Z,3.40
2019-01-06T14:20:16.939Z,3.95
2019-01-06T14:23:04.499Z,3.80
2019-01-06T14:25:53.867Z,3.72
2019-01-06T14:28:55.203Z,3.85
2019-01-06T14:31:49.890Z,3.75
2019-01-06T14:34:52.838Z,4.22
2019-01-06T14:37:45.268Z,4.37
2019-01-06T14:40:37.241Z,4.00
2019-01-06T14:43:41.913Z,3.92
2019-01-06T14:46:29.615Z,3.70
2019-01-06T14:49:20.406Z,3.92
2019-01-06T14:52:08.757Z,4.22
2019-01-06T14:55:16.403Z,5.62
2019-01-06T14:58:04.457Z,4.17
2019-01-06T15:01:03.510Z,4.03
2019-01-06T15:04:09.960Z,3.17
2019-01-06T15:06:57.632Z,3.35
2019-01-06T15:09:46.167Z,4.12
2019-01-06T15:12:50.824Z,4.00
2019-01-06T15:15:38.925Z,3.92
2019-01-06T15:18:28.239Z,3.50
2019-01-06T15:21:29.589Z,3.37
2019-01-06T15:24:18.771Z,3.52
2019-01-06T15:27:12.776Z,3.42
2019-01-06T15:30:06.663Z,3.40
2019-01-06T15:32:58.597Z,4.37
2019-01-06T15:36:02.532Z,4.25
2019-01-06T15:38:45.471Z,4.67
2019-01-06T15:41:42.095Z,3.83
2019-01-06T15:44:44.969Z,3.98
2019-01-06T15:47:34.661Z,4.47
2019-01-06T15:50:22.717Z,4.47
2019-01-06T15:53:17.990Z,4.65
2019-01-06T15:56:17.126Z,4.28
2019-01-06T15:59:12.046Z,4.33
2019-01-06T16:02:10.416Z,4.37
2019-01-06T16:04:58.284Z,4.60
2019-01-06T16:07:50.376Z,3.70
2019-01-06T16:10:42.668Z,3.77
2019-01-06T16:13:31.223Z,3.90
2019-01-06T16:16:19.367Z,3.87
2019-01-06T16:19:07.872Z,4.00
2019-01-06T16:22:03.079Z,4.47
2019-01-06T16:24:51.842Z,4.08
2019-01-06T16:27:39.822Z,4.60
2019-01-06T16:30:29.146Z,4.60
2019-01-06T16:33:15.485Z,4.67
2019-01-06T16:36:08.023Z,4.62
2019-01-06T16:38:56.399Z,5.00
2019-01-06T16:41:44.250Z,5.25
2019-01-06T16:44:32.250Z,5.00
2019-01-06T16:47:21.006Z,5.30
2019-01-06T16:50:09.128Z,4.62
2019-01-06T16:53:05.386Z,4.87
2019-01-06T16:55:55.054Z,5.85
2019-01-06T16:58:57.399Z,5.15
2019-01-06T17:01:45.302Z,5.25
2019-01-06T17:04:33.373Z,5.85
2019-01-06T17:07:21.512Z,6.62
2019-01-06T17:10:11.148Z,6.17
2019-01-06T17:12:59.116Z,6.20
2019-01-06T17:15:47.211Z,6.37
2019-01-06T17:18:30.537Z,6.25
2019-01-06T17:21:18.212Z,5.80
2019-01-06T17:24:14.471Z,7.28
2019-01-06T17:27:02.944Z,5.80
2019-01-06T17:29:58.069Z,5.47
2019-01-06T17:32:51.521Z,5.37
2019-01-06T17:35:42.175Z,4.60
2019-01-06T17:38:30.183Z,6.10
2019-01-06T17:41:18.219Z,4.80
2019-01-06T17:44:23.140Z,5.05
2019-01-06T17:47:30.812Z,4.53
2019-01-06T17:50:20.735Z,4.40
2019-01-06T17:53:13.317Z,4.20
2019-01-06T17:55:57.106Z,4.87
2019-01-06T17:58:52.347Z,5.33
2019-01-06T18:01:41.330Z,5.15
2019-01-06T18:04:36.383Z,5.33
2019-01-06T18:07:25.617Z,4.95
2019-01-06T18:10:30.155Z,4.72
2019-01-06T18:13:17.513Z,4.78
2019-01-06T18:16:09.751Z,4.65
2019-01-06T18:19:05.125Z,4.55
2019-01-06T18:21:57.174Z,4.47
2019-01-06T18:24:44.104Z,4.75
2019-01-06T18:27:32.137Z,4.83
2019-01-06T18:30:21.354Z,4.70
2019-01-06T18:33:15.734Z,4.58
2019-01-06T18:36:14.320Z,4.72
2019-01-06T18:39:02.393Z,5.15
2019-01-06T18:41:58.507Z,4.75
2019-01-06T18:44:46.484Z,4.15
2019-01-06T18:47:35.949Z,4.90
2019-01-06T18:50:25.470Z,4.50
2019-01-06T18:53:23.934Z,4.78
2019-01-06T18:56:17.446Z,4.95
2019-01-06T18:59:18.727Z,4.60
2019-01-06T19:02:17.135Z,4.60
2019-01-06T19:05:05.403Z,4.75
2019-01-06T19:07:48.604Z,4.33
2019-01-06T19:10:37.146Z,4.47
2019-01-06T19:13:33.264Z,4.85
2019-01-06T19:16:28.848Z,4.90
2019-01-06T19:19:20.944Z,4.00
2019-01-06T19:22:16.478Z,4.47
2019-01-06T19:25:24.462Z,4.55
2019-01-06T19:28:13.846Z,4.35
2019-01-06T19:31:03.418Z,4.17
2019-01-06T19:33:58.683Z,4.47
2019-01-06T19:36:52.421Z,4.28
2019-01-06T19:39:44.811Z,4.90
2019-01-06T19:42:40.226Z,4.72
2019-01-06T19:45:44.832Z,4.90
2019-01-06T19:48:33.985Z,4.55
2019-01-06T19:51:15.205Z,4.42
2019-01-06T19:54:03.083Z,4.80
2019-01-06T19:57:10.711Z,4.70
2019-01-06T19:59:58.692Z,5.12
2019-01-06T20:02:54.072Z,4.65
2019-01-06T20:05:49.694Z,4.85
2019-01-06T20:08:38.931Z,4.78
2019-01-06T20:11:40.051Z,5.25
2019-01-06T20:14:29.242Z,4.95
2019-01-06T20:17:17.207Z,4.47
2019-01-06T20:20:05.597Z,4.83
2019-01-06T20:23:00.808Z,4.85
2019-01-06T20:26:05.681Z,5.28
2019-01-06T20:28:54.197Z,5.40
2019-01-06T20:31:49.534Z,5.62
2019-01-06T20:34:48.553Z,6.10
2019-01-06T20:37:36.368Z,6.03
2019-01-06T20:40:24.699Z,5.90
2019-01-06T20:43:09.950Z,5.37
2019-01-06T20:46:11.519Z,5.65
2019-01-06T20:49:03.907Z,5.58
2019-01-06T20:52:06.892Z,6.47
2019-01-06T20:54:54.793Z,6.15
2019-01-06T20:57:56.450Z,5.47
2019-01-06T21:00:45.851Z,5.75
2019-01-06T21:03:41.177Z,5.40
2019-01-06T21:06:45.596Z,5.72
2019-01-06T21:09:38.080Z,5.30
2019-01-06T21:12:26.328Z,6.17
2019-01-06T21:15:16.357Z,5.58
2019-01-06T21:18:24.525Z,6.17
2019-01-06T21:21:24.402Z,6.03
2019-01-06T21:24:12.136Z,6.05
2019-01-06T21:27:00.298Z,6.50
2019-01-06T21:29:58.741Z,5.90
2019-01-06T21:32:54.203Z,6.42
2019-01-06T21:35:43.409Z,6.75
2019-01-06T21:38:39.053Z,7.10
2019-01-06T21:41:40.294Z,7.67
2019-01-06T21:44:28.205Z,6.53
2019-01-06T21:47:32.341Z,6.53
2019-01-06T21:50:30.678Z,6.65
2019-01-06T21:53:19.853Z,6.12
2019-01-06T21:56:15.367Z,6.40
2019-01-06T21:59:03.494Z,6.40
2019-01-06T22:02:09.347Z,6.22
2019-01-06T22:04:53.688Z,5.75
2019-01-06T22:07:42.930Z,5.92
2019-01-06T22:10:31.129Z,6.35
2019-01-06T22:13:20.320Z,6.03
2019-01-06T22:16:09.633Z,5.70
2019-01-06T22:19:06.779Z,6.45
2019-01-06T22:22:12.290Z,6.00
2019-01-06T22:25:07.888Z,6.35
2019-01-06T22:27:56.109Z,5.83
2019-01-06T22:30:43.545Z,6.60
2019-01-06T22:33:31.421Z,6.03
2019-01-06T22:36:21.055Z,6.55
2019-01-06T22:39:13.160Z,5.45
2019-01-06T22:42:14.897Z,5.78
2019-01-06T22:45:04.187Z,5.92
2019-01-06T22:47:59.474Z,6.08
2019-01-06T22:51:00.679Z,5.90
2019-01-06T22:53:48.563Z,6.15
2019-01-06T22:56:49.722Z,6.58
2019-01-06T22:59:37.864Z,5.67
2019-01-06T23:02:33.279Z,7.58
2019-01-06T23:05:37.697Z,6.35
2019-01-06T23:08:35.750Z,7.40
2019-01-06T23:11:23.785Z,6.50
2019-01-06T23:14:12.911Z,7.47
2019-01-06T23:16:59.035Z,7.47
2019-01-06T23:19:47.053Z,7.42
2019-01-06T23:22:34.857Z,7.15
2019-01-06T23:25:23.045Z,8.03
2019-01-06T23:28:24.257Z,7.17
2019-01-06T23:31:22.322Z,6.72
2019-01-06T23:34:10.328Z,6.60
2019-01-06T23:36:58.462Z,6.40
2019-01-06T23:39:53.745Z,6.15
2019-01-06T23:43:01.385Z,5.87
2019-01-06T23:45:49.510Z,6.30
2019-01-06T23:48:37.484Z,5.92
2019-01-06T23:51:22.191Z,6.12
2019-01-06T23:54:03.764Z,6.05
2019-01-06T23:56:51.825Z,6.00
2019-01-06T23:59:33.895Z,5.70
